createdAt,value
2022-11-17T00:01:09.559Z,60.53
2022-11-17T00:06:11.609Z,60.61
2022-11-17T00:11:13.751Z,61.05
2022-11-17T00:16:17.372Z,60.71
2022-11-17T00:21:19.960Z,60.87
2022-11-17T00:26:24.251Z,61.04
2022-11-17T00:31:46.098Z,60.90
2022-11-17T00:36:53.363Z,60.72
2022-11-17T00:41:55.740Z,61.05
2022-11-17T00:46:57.765Z,61.01
2022-11-17T00:51:59.573Z,61.34
2022-11-17T00:57:01.904Z,61.13
2022-11-17T01:02:04.012Z,61.49
2022-11-17T01:07:05.890Z,61.20
2022-11-17T01:12:07.805Z,61.55
2022-11-17T01:17:09.645Z,61.42
2022-11-17T01:22:11.491Z,61.28
2022-11-17T01:27:13.310Z,61.63
2022-11-17T01:32:15.141Z,61.24
2022-11-17T01:37:19.736Z,61.06
2022-11-17T01:42:24.443Z,61.29
2022-11-17T01:47:35.188Z,61.24
2022-11-17T01:52:39.233Z,61.36
2022-11-17T01:58:00.084Z,61.64
2022-11-17T02:03:02.322Z,61.53
2022-11-17T02:08:06.869Z,61.50
2022-11-17T02:13:09.487Z,61.24
2022-11-17T02:18:11.665Z,61.38
2022-11-17T02:23:37.628Z,61.42
2022-11-17T02:29:04.944Z,61.33
2022-11-17T02:34:16.604Z,61.45
2022-11-17T02:39:23.738Z,61.37
2022-11-17T02:44:44.329Z,61.01
2022-11-17T02:49:56.717Z,61.75
2022-11-17T02:55:06.897Z,61.35
2022-11-17T03:00:16.746Z,61.46
2022-11-17T03:05:36.916Z,61.56
2022-11-17T03:10:51.569Z,61.31
2022-11-17T03:16:32.147Z,61.21
2022-11-17T03:21:56.136Z,61.08
2022-11-17T03:27:06.265Z,61.29
2022-11-17T03:32:10.090Z,61.47
2022-11-17T03:37:14.830Z,61.19
2022-11-17T03:42:24.363Z,61.62
2022-11-17T03:47:28.610Z,61.70
2022-11-17T03:52:31.284Z,61.05
2022-11-17T03:57:59.673Z,61.59
2022-11-17T04:03:01.585Z,61.39
2022-11-17T04:08:03.702Z,61.48
2022-11-17T04:13:24.303Z,61.78
2022-11-17T04:18:27.187Z,61.82
2022-11-17T04:23:29.024Z,61.62
2022-11-17T04:28:38.919Z,61.75
2022-11-17T04:33:42.987Z,62.03
2022-11-17T04:38:47.304Z,61.48
2022-11-17T04:43:49.283Z,62.27
2022-11-17T04:48:55.648Z,61.96
2022-11-17T04:53:58.074Z,62.04
2022-11-17T04:58:59.972Z,61.83
2022-11-17T05:04:07.447Z,62.31
2022-11-17T05:09:16.405Z,61.84
2022-11-17T05:14:20.379Z,62.43
2022-11-17T05:19:24.835Z,62.41
2022-11-17T05:24:26.729Z,62.28
2022-11-17T05:29:28.543Z,62.38
2022-11-17T05:34:30.955Z,62.46
2022-11-17T05:39:32.760Z,62.37
2022-11-17T05:44:34.601Z,62.34
2022-11-17T05:49:36.423Z,62.21
2022-11-17T05:54:38.251Z,62.47
2022-11-17T05:59:45.468Z,62.63
2022-11-17T06:04:49.580Z,62.84
2022-11-17T06:09:51.970Z,62.65
2022-11-17T06:14:53.806Z,62.84
2022-11-17T06:20:01.535Z,62.80
2022-11-17T06:25:08.447Z,62.97
2022-11-17T06:30:10.768Z,62.78
2022-11-17T06:35:14.488Z,62.72
2022-11-17T06:40:16.676Z,62.80
2022-11-17T06:45:18.493Z,62.94
2022-11-17T06:50:20.436Z,62.87
2022-11-17T06:55:22.287Z,62.80
2022-11-17T07:00:24.083Z,63.05
2022-11-17T07:05:25.984Z,62.75
2022-11-17T07:10:29.237Z,62.89
2022-11-17T07:15:31.965Z,63.03
2022-11-17T07:20:33.776Z,63.00
2022-11-17T07:25:35.677Z,63.18
2022-11-17T07:30:37.557Z,63.22
2022-11-17T07:35:39.436Z,63.10
2022-11-17T07:40:41.579Z,63.16
2022-11-17T07:45:43.618Z,63.57
2022-11-17T07:50:45.467Z,63.45
2022-11-17T07:55:48.288Z,63.76
2022-11-17T08:00:50.524Z,63.27
2022-11-17T08:05:53.516Z,62.86
2022-11-17T08:10:55.324Z,63.13
2022-11-17T08:15:57.943Z,63.19
2022-11-17T08:21:03.913Z,62.96
2022-11-17T08:26:07.665Z,63.12
2022-11-17T08:31:09.479Z,63.36
2022-11-17T08:36:11.986Z,63.37
2022-11-17T08:41:13.946Z,63.25
2022-11-17T08:46:15.775Z,63.49
2022-11-17T08:51:17.612Z,63.57
2022-11-17T08:56:19.505Z,63.62
2022-11-17T09:01:21.464Z,63.64
2022-11-17T09:06:23.673Z,63.88
2022-11-17T09:11:25.596Z,63.96
2022-11-17T09:16:27.518Z,64.04
2022-11-17T09:21:31.533Z,63.89
2022-11-17T09:26:33.363Z,64.24
2022-11-17T09:31:35.815Z,64.10
2022-11-17T09:36:37.710Z,64.12
2022-11-17T09:41:43.686Z,64.48
2022-11-17T09:47:06.608Z,64.24
2022-11-17T09:52:19.829Z,64.25
2022-11-17T09:57:29.161Z,64.35
2022-11-17T10:02:31.057Z,64.39
2022-11-17T10:07:34.992Z,63.96
2022-11-17T10:12:47.755Z,64.28
2022-11-17T10:17:50.789Z,64.28
2022-11-17T10:22:54.604Z,63.96
2022-11-17T10:27:56.402Z,63.81
2022-11-17T10:33:00.478Z,64.24
2022-11-17T10:38:02.226Z,64.22
2022-11-17T10:43:13.193Z,64.39
2022-11-17T10:48:37.701Z,63.80
2022-11-17T10:53:46.194Z,63.81
2022-11-17T10:59:02.493Z,64.21
2022-11-17T11:04:06.176Z,64.06
2022-11-17T11:09:19.067Z,64.24
2022-11-17T11:14:33.958Z,64.06
2022-11-17T11:19:35.827Z,63.64
2022-11-17T11:25:14.838Z,63.47
2022-11-17T11:30:18.351Z,63.89
2022-11-17T11:35:32.523Z,64.03
2022-11-17T11:40:41.174Z,63.57
2022-11-17T11:46:08.368Z,63.90
2022-11-17T11:51:22.281Z,63.61
2022-11-17T11:56:33.541Z,64.29
2022-11-17T12:01:48.997Z,63.74
2022-11-17T12:07:12.889Z,64.10
2022-11-17T12:12:20.619Z,63.99
2022-11-17T12:17:26.161Z,64.39
2022-11-17T12:22:33.999Z,64.39
2022-11-17T12:27:35.767Z,64.04
2022-11-17T12:32:46.589Z,64.49
2022-11-17T12:37:48.955Z,64.28
2022-11-17T12:43:15.899Z,64.14
2022-11-17T12:48:33.435Z,64.30
2022-11-17T12:53:47.997Z,64.49
2022-11-17T12:58:53.425Z,64.38
2022-11-17T13:03:59.409Z,64.47
2022-11-17T13:09:06.224Z,64.12
2022-11-17T13:14:14.380Z,64.40
2022-11-17T13:19:37.250Z,63.94
2022-11-17T13:24:41.624Z,64.08
2022-11-17T13:29:43.606Z,64.43
2022-11-17T13:34:52.626Z,64.20
2022-11-17T13:39:57.295Z,64.02
2022-11-17T13:45:02.599Z,64.18
2022-11-17T13:50:26.219Z,64.06
2022-11-17T13:55:29.305Z,64.37
2022-11-17T14:00:32.030Z,64.49
2022-11-17T14:05:34.222Z,64.36
2022-11-17T14:10:38.580Z,64.49
2022-11-17T14:15:42.436Z,64.17
2022-11-17T14:20:44.493Z,63.99
2022-11-17T14:25:50.246Z,64.15
2022-11-17T14:30:56.456Z,63.60
2022-11-17T14:41:29.153Z,63.64
2022-11-17T14:46:30.982Z,63.40
2022-11-17T14:51:32.903Z,63.68
2022-11-17T14:56:35.019Z,63.88
2022-11-17T15:01:38.698Z,64.26
2022-11-17T15:06:40.504Z,64.11
2022-11-17T15:11:42.310Z,64.17
2022-11-17T15:16:44.097Z,63.67
2022-11-17T15:21:45.920Z,63.78
2022-11-17T15:26:47.803Z,64.13
2022-11-17T15:31:49.931Z,64.21
2022-11-17T15:36:51.828Z,64.00
2022-11-17T15:41:53.756Z,64.33
2022-11-17T15:46:55.934Z,64.36
2022-11-17T15:51:57.978Z,63.84
2022-11-17T15:57:01.533Z,63.85
2022-11-17T16:02:09.457Z,64.17
2022-11-17T16:07:11.339Z,64.10
2022-11-17T16:12:13.243Z,63.99
2022-11-17T16:17:15.079Z,63.87
2022-11-17T16:22:16.952Z,64.26
2022-11-17T16:27:18.746Z,63.79
2022-11-17T16:32:20.562Z,64.18
2022-11-17T16:37:22.355Z,64.04
2022-11-17T16:42:24.153Z,64.45
2022-11-17T16:47:26.011Z,64.11
2022-11-17T16:52:27.820Z,64.35
2022-11-17T16:57:30.167Z,64.40
2022-11-17T17:02:33.429Z,64.24
2022-11-17T17:07:35.407Z,64.79
2022-11-17T17:12:37.334Z,64.28
2022-11-17T17:17:39.159Z,64.53
2022-11-17T17:22:40.960Z,64.51
2022-11-17T17:27:42.819Z,64.38
2022-11-17T17:32:44.625Z,64.52
2022-11-17T17:37:46.430Z,64.71
2022-11-17T17:42:48.252Z,63.87
2022-11-17T17:47:50.053Z,64.07
2022-11-17T17:52:51.884Z,64.25
2022-11-17T17:57:53.731Z,63.74
2022-11-17T18:02:55.668Z,64.04
2022-11-17T18:07:57.513Z,63.72
2022-11-17T18:12:59.341Z,64.06
2022-11-17T18:18:01.503Z,64.25
2022-11-17T18:23:03.373Z,64.40
2022-11-17T18:28:05.368Z,63.86
2022-11-17T18:33:07.167Z,64.11
2022-11-17T18:38:09.105Z,64.45
2022-11-17T18:43:12.551Z,64.00
2022-11-17T18:48:14.592Z,63.90
2022-11-17T18:53:16.814Z,63.74
2022-11-17T18:58:18.708Z,63.96
2022-11-17T19:03:21.199Z,63.63
2022-11-17T19:08:23.137Z,63.47
2022-11-17T19:13:25.599Z,63.68
2022-11-17T19:18:27.449Z,63.55
2022-11-17T19:23:31.422Z,63.06
2022-11-17T19:28:34.029Z,63.87
2022-11-17T19:33:38.140Z,63.59
2022-11-17T19:38:40.692Z,63.59
2022-11-17T19:43:45.341Z,63.55
2022-11-17T19:48:47.549Z,63.31
2022-11-17T19:53:50.956Z,63.77
2022-11-17T19:58:53.880Z,63.08
2022-11-17T20:03:57.633Z,63.09
2022-11-17T20:08:59.578Z,63.33
2022-11-17T20:14:02.471Z,63.57
2022-11-17T20:19:04.861Z,63.47
2022-11-17T20:24:07.268Z,64.08
2022-11-17T20:29:09.284Z,63.48
2022-11-17T20:34:12.888Z,63.59
2022-11-17T20:39:16.185Z,63.60
2022-11-17T20:44:24.539Z,63.54
2022-11-17T20:49:28.297Z,63.48
2022-11-17T20:54:30.360Z,63.79
2022-11-17T20:59:32.225Z,63.53
2022-11-17T21:04:34.348Z,64.16
2022-11-17T21:09:36.163Z,63.81
2022-11-17T21:14:38.031Z,64.01
2022-11-17T21:19:39.834Z,64.10
2022-11-17T21:24:41.646Z,63.63
2022-11-17T21:29:43.431Z,63.76
2022-11-17T21:34:49.624Z,64.12
2022-11-17T21:39:52.243Z,63.45
2022-11-17T21:44:54.048Z,63.34
2022-11-17T21:49:55.876Z,63.46
2022-11-17T21:54:57.731Z,63.02
2022-11-17T21:59:59.550Z,63.62
2022-11-17T22:05:01.345Z,63.65
2022-11-17T22:10:03.517Z,63.94
2022-11-17T22:15:11.349Z,63.30
2022-11-17T22:20:13.527Z,63.31
2022-11-17T22:25:42.970Z,63.47
2022-11-17T22:30:38.928Z,63.61
2022-11-17T22:35:40.782Z,63.52
2022-11-17T22:40:42.844Z,63.47
2022-11-17T22:45:44.752Z,63.04
2022-11-17T22:50:46.636Z,63.15
2022-11-17T22:55:48.471Z,63.72
2022-11-17T23:00:53.032Z,63.22
2022-11-17T23:05:54.863Z,63.50
2022-11-17T23:11:34.894Z,63.80
2022-11-17T23:16:25.561Z,62.99
2022-11-17T23:21:27.442Z,63.63
2022-11-17T23:26:29.243Z,63.54
2022-11-17T23:31:31.104Z,63.04
2022-11-17T23:36:32.890Z,63.44
2022-11-17T23:41:34.729Z,63.68
2022-11-17T23:46:36.999Z,63.34
2022-11-17T23:51:38.862Z,63.40
2022-11-17T23:56:41.164Z,63.40
